createdAt,value
2022-12-08T00:00:31.927Z,83.08
2022-12-08T00:05:52.257Z,83.15
2022-12-08T00:10:53.919Z,82.97
2022-12-08T00:16:00.699Z,82.75
2022-12-08T00:21:02.855Z,82.51
2022-12-08T00:26:05.471Z,82.17
2022-12-08T00:31:08.744Z,82.90
2022-12-08T00:36:13.062Z,82.53
2022-12-08T00:41:17.515Z,82.76
2022-12-08T00:46:19.177Z,82.98
2022-12-08T00:51:20.881Z,82.96
2022-12-08T00:56:22.651Z,82.88
2022-12-08T01:01:24.438Z,82.91
2022-12-08T01:06:26.144Z,83.31
2022-12-08T01:11:28.766Z,83.38
2022-12-08T01:16:33.253Z,83.58
2022-12-08T01:21:34.932Z,83.50
2022-12-08T01:26:43.886Z,84.03
2022-12-08T01:31:45.598Z,84.43
2022-12-08T01:36:50.444Z,84.83
2022-12-08T01:41:52.117Z,85.46
2022-12-08T01:46:54.415Z,85.35
2022-12-08T01:52:09.994Z,85.54
2022-12-08T01:57:12.739Z,86.08
2022-12-08T02:02:15.257Z,85.72
2022-12-08T02:07:18.000Z,85.76
2022-12-08T02:12:19.676Z,85.97
2022-12-08T02:17:36.575Z,86.33
2022-12-08T02:22:50.835Z,86.09
2022-12-08T02:27:55.531Z,85.72
2022-12-08T02:33:38.853Z,85.85
2022-12-08T02:38:46.159Z,85.80
2022-12-08T02:43:49.409Z,85.81
2022-12-08T02:48:51.759Z,85.83
2022-12-08T02:53:53.462Z,85.37
2022-12-08T02:59:16.661Z,85.13
2022-12-08T03:04:31.276Z,84.54
2022-12-08T03:09:46.827Z,84.41
2022-12-08T03:14:53.026Z,84.13
2022-12-08T03:19:55.746Z,84.40
2022-12-08T03:24:57.862Z,84.74
2022-12-08T03:30:00.696Z,84.36
2022-12-08T03:35:05.795Z,84.19
2022-12-08T03:40:10.120Z,84.31
2022-12-08T03:45:12.173Z,84.32
2022-12-08T03:50:15.107Z,83.99
2022-12-08T03:55:17.337Z,83.72
2022-12-08T04:00:19.167Z,83.51
2022-12-08T04:05:20.811Z,83.34
2022-12-08T04:10:22.425Z,83.51
2022-12-08T04:15:24.140Z,83.59
2022-12-08T04:20:25.832Z,83.89
2022-12-08T04:25:27.856Z,83.73
2022-12-08T04:30:29.532Z,84.09
2022-12-08T04:35:31.645Z,84.57
2022-12-08T04:40:33.612Z,84.48
2022-12-08T04:45:35.436Z,84.97
2022-12-08T04:50:40.608Z,85.31
2022-12-08T04:55:44.234Z,85.45
2022-12-08T05:00:46.611Z,85.27
2022-12-08T05:05:48.272Z,85.60
2022-12-08T05:10:50.038Z,85.63
2022-12-08T05:15:51.808Z,86.35
2022-12-08T05:20:53.513Z,86.16
2022-12-08T05:25:55.366Z,86.38
2022-12-08T05:30:57.017Z,86.18
2022-12-08T05:35:58.653Z,86.65
2022-12-08T05:41:00.386Z,87.09
2022-12-08T05:46:02.532Z,86.97
2022-12-08T05:51:05.010Z,87.09
2022-12-08T05:56:06.981Z,86.68
2022-12-08T06:01:21.416Z,86.24
2022-12-08T06:06:23.073Z,86.69
2022-12-08T06:11:29.772Z,86.45
2022-12-08T06:16:31.535Z,86.71
2022-12-08T06:21:33.275Z,86.35
2022-12-08T06:26:36.129Z,86.60
2022-12-08T06:31:37.879Z,85.81
2022-12-08T06:36:39.553Z,85.55
2022-12-08T06:41:59.730Z,84.59
2022-12-08T06:47:01.368Z,84.77
2022-12-08T06:52:03.090Z,84.61
2022-12-08T06:57:04.719Z,84.39
2022-12-08T07:02:06.716Z,84.13
2022-12-08T07:07:08.441Z,84.22
2022-12-08T07:12:10.109Z,84.67
2022-12-08T07:17:12.358Z,84.84
2022-12-08T07:22:14.362Z,84.75
2022-12-08T07:27:16.004Z,85.05
2022-12-08T07:32:17.758Z,82.45
2022-12-08T07:37:19.480Z,81.62
2022-12-08T07:42:21.177Z,82.59
2022-12-08T07:47:22.861Z,82.98
2022-12-08T07:52:24.816Z,83.13
2022-12-08T07:57:26.530Z,83.85
2022-12-08T08:02:28.413Z,81.69
2022-12-08T08:07:31.306Z,82.52
2022-12-08T08:12:33.301Z,83.42
2022-12-08T08:17:36.912Z,83.81
2022-12-08T08:22:39.073Z,83.96
2022-12-08T08:27:42.408Z,84.58
2022-12-08T08:32:45.339Z,84.35
2022-12-08T08:37:49.446Z,84.92
2022-12-08T08:42:52.627Z,84.62
2022-12-08T08:47:54.265Z,84.69
2022-12-08T08:52:57.709Z,84.64
2022-12-08T08:57:59.349Z,84.34
2022-12-08T09:03:01.074Z,83.93
2022-12-08T09:08:02.872Z,83.99
2022-12-08T09:13:04.574Z,83.44
2022-12-08T09:18:12.441Z,83.09
2022-12-08T09:23:16.068Z,81.39
2022-12-08T09:28:17.696Z,81.00
2022-12-08T09:33:19.393Z,80.46
2022-12-08T09:38:21.126Z,79.59
2022-12-08T09:43:28.745Z,79.26
2022-12-08T09:48:34.581Z,78.66
2022-12-08T09:53:39.851Z,78.12
2022-12-08T09:58:58.037Z,77.02
2022-12-08T10:04:00.983Z,77.22
2022-12-08T10:09:02.625Z,76.66
2022-12-08T10:14:26.085Z,76.22
2022-12-08T10:24:37.378Z,74.87
2022-12-08T10:29:40.536Z,73.55
2022-12-08T10:35:01.797Z,73.36
2022-12-08T10:40:11.276Z,72.48
2022-12-08T10:45:24.196Z,72.07
2022-12-08T10:50:35.405Z,72.01
2022-12-08T10:55:46.429Z,72.46
2022-12-08T11:00:48.226Z,70.88
2022-12-08T11:05:50.053Z,71.96
2022-12-08T11:10:51.670Z,72.62
2022-12-08T11:15:57.186Z,72.22
2022-12-08T11:21:02.331Z,72.13
2022-12-08T11:26:18.378Z,70.37
2022-12-08T11:31:32.424Z,69.76
2022-12-08T11:36:37.656Z,70.42
2022-12-08T11:41:42.444Z,68.53
2022-12-08T11:46:50.867Z,69.35
2022-12-08T11:52:17.590Z,69.63
2022-12-08T11:57:21.168Z,68.68
2022-12-08T12:02:29.778Z,68.48
2022-12-08T12:07:57.595Z,68.23
2022-12-08T12:13:26.703Z,69.09
2022-12-08T12:18:35.893Z,69.18
2022-12-08T12:23:53.773Z,68.74
2022-12-08T12:28:59.013Z,67.98
2022-12-08T12:34:11.008Z,68.19
2022-12-08T12:39:13.669Z,67.90
2022-12-08T12:44:15.281Z,68.34
2022-12-08T12:49:43.904Z,68.38
2022-12-08T12:55:05.558Z,68.64
2022-12-08T13:00:10.096Z,68.83
2022-12-08T13:05:26.182Z,68.07
2022-12-08T13:10:30.751Z,68.61
2022-12-08T13:15:38.357Z,68.26
2022-12-08T13:20:42.789Z,69.04
2022-12-08T13:25:44.389Z,69.55
2022-12-08T13:31:26.447Z,70.10
2022-12-08T13:36:33.845Z,69.42
2022-12-08T13:41:41.865Z,69.88
2022-12-08T13:47:16.855Z,69.22
2022-12-08T13:53:49.043Z,70.00
2022-12-08T13:57:39.658Z,69.97
2022-12-08T14:02:49.434Z,70.22
2022-12-08T14:07:55.013Z,70.45
2022-12-08T14:13:03.100Z,69.90
2022-12-08T14:18:04.865Z,70.80
2022-12-08T14:23:08.235Z,70.83
2022-12-08T14:28:10.587Z,71.15
2022-12-08T14:33:15.122Z,71.74
2022-12-08T14:38:18.828Z,71.75
2022-12-08T14:43:21.165Z,72.17
2022-12-08T14:48:25.963Z,72.20
2022-12-08T14:53:31.963Z,73.08
2022-12-08T14:58:33.637Z,72.75
2022-12-08T15:03:36.566Z,74.22
2022-12-08T15:08:58.764Z,74.69
2022-12-08T15:14:01.352Z,73.86
2022-12-08T15:19:30.466Z,74.15
2022-12-08T15:24:32.419Z,74.38
2022-12-08T15:29:34.083Z,75.70
2022-12-08T15:34:37.188Z,76.04
2022-12-08T15:39:39.434Z,76.14
2022-12-08T15:44:41.738Z,75.89
2022-12-08T15:49:44.046Z,75.49
2022-12-08T15:54:45.783Z,76.57
2022-12-08T15:59:47.601Z,75.31
2022-12-08T16:10:20.702Z,75.10
2022-12-08T16:15:50.062Z,75.50
2022-12-08T16:21:08.092Z,75.15
2022-12-08T16:26:21.910Z,76.19
2022-12-08T16:31:28.613Z,75.04
2022-12-08T16:36:30.332Z,73.87
2022-12-08T16:41:50.524Z,74.64
2022-12-08T16:46:52.278Z,74.54
2022-12-08T16:51:54.123Z,74.23
2022-12-08T16:56:55.796Z,74.89
2022-12-08T17:01:57.532Z,74.14
2022-12-08T17:06:59.552Z,74.22
2022-12-08T17:12:04.058Z,74.07
2022-12-08T17:17:06.544Z,74.76
2022-12-08T17:22:08.291Z,74.35
2022-12-08T17:27:09.944Z,74.91
2022-12-08T17:32:11.846Z,74.25
2022-12-08T17:37:13.823Z,74.89
2022-12-08T17:42:15.715Z,74.71
2022-12-08T17:47:17.366Z,74.04
2022-12-08T17:52:19.064Z,74.90
2022-12-08T17:57:20.770Z,74.78
2022-12-08T18:02:22.658Z,74.96
2022-12-08T18:07:24.438Z,74.95
2022-12-08T18:12:26.076Z,74.95
2022-12-08T18:17:27.745Z,74.80
2022-12-08T18:22:29.449Z,74.96
2022-12-08T18:27:31.100Z,74.15
2022-12-08T18:32:33.182Z,75.16
2022-12-08T18:37:34.929Z,74.42
2022-12-08T18:42:36.761Z,74.57
2022-12-08T18:47:40.241Z,74.70
2022-12-08T18:52:42.353Z,74.78
2022-12-08T18:57:44.117Z,74.17
2022-12-08T19:02:46.036Z,73.49
2022-12-08T19:07:47.982Z,74.00
2022-12-08T19:12:51.267Z,73.11
2022-12-08T19:17:53.074Z,73.19
2022-12-08T19:22:55.286Z,72.86
2022-12-08T19:27:56.986Z,72.97
2022-12-08T19:32:58.778Z,72.74
2022-12-08T19:38:00.480Z,73.02
2022-12-08T19:43:20.822Z,73.47
2022-12-08T19:48:22.594Z,72.93
2022-12-08T19:53:24.634Z,72.84
2022-12-08T19:58:26.345Z,72.13
2022-12-08T20:03:28.120Z,72.35
2022-12-08T20:08:29.925Z,73.10
2022-12-08T20:13:47.806Z,72.98
2022-12-08T20:18:49.993Z,74.16
2022-12-08T20:23:51.752Z,74.69
2022-12-08T20:28:53.450Z,75.99
2022-12-08T20:33:55.595Z,75.56
2022-12-08T20:38:57.426Z,77.13
2022-12-08T20:43:59.084Z,78.41
2022-12-08T20:49:03.256Z,78.70
2022-12-08T20:54:05.002Z,79.74
2022-12-08T20:59:06.827Z,81.15
2022-12-08T21:04:12.348Z,81.82
2022-12-08T21:09:14.476Z,84.07
2022-12-08T21:14:16.220Z,83.74
2022-12-08T21:19:19.829Z,82.83
2022-12-08T21:24:21.662Z,83.27
2022-12-08T21:29:23.431Z,83.36
2022-12-08T21:34:26.327Z,83.92
2022-12-08T21:39:28.185Z,84.81
2022-12-08T21:44:30.073Z,85.47
2022-12-08T21:49:32.045Z,86.06
2022-12-08T21:54:33.817Z,86.26
2022-12-08T21:59:35.718Z,86.57
2022-12-08T22:04:37.673Z,87.36
2022-12-08T22:09:39.695Z,87.39
2022-12-08T22:14:41.570Z,87.24
2022-12-08T22:19:43.661Z,88.16
2022-12-08T22:24:45.542Z,88.44
2022-12-08T22:29:47.209Z,87.94
2022-12-08T22:34:49.942Z,87.80
2022-12-08T22:39:51.831Z,88.38
2022-12-08T22:44:53.443Z,88.69
2022-12-08T22:49:55.197Z,88.59
2022-12-08T22:54:56.839Z,89.02
2022-12-08T22:59:58.658Z,89.47
2022-12-08T23:05:00.550Z,89.23
2022-12-08T23:10:02.906Z,89.10
2022-12-08T23:15:05.730Z,89.37
2022-12-08T23:20:08.179Z,88.58
2022-12-08T23:25:10.322Z,88.01
2022-12-08T23:30:12.650Z,87.99
2022-12-08T23:35:14.756Z,87.94
2022-12-08T23:40:16.627Z,88.28
2022-12-08T23:45:18.395Z,87.75
2022-12-08T23:50:20.187Z,87.73
2022-12-08T23:55:21.884Z,88.46
